sensor_id;sensor_type;location;lat;lon;timestamp;pressure;altitude;pressure_sealevel;temperature;humidity
16255;BME280;8235;52.198;9.904;2023-04-01T00:01:10;98750.03;;;10.20;93.40
16255;BME280;8235;52.198;9.904;2023-04-01T00:03:39;98749.19;;;10.20;93.61
16255;BME280;8235;52.198;9.904;2023-04-01T00:06:06;98752.84;;;10.19;93.06
16255;BME280;8235;52.198;9.904;2023-04-01T00:08:32;98750.03;;;10.20;93.16
16255;BME280;8235;52.198;9.904;2023-04-01T00:10:59;98746.66;;;10.18;93.22
16255;BME280;8235;52.198;9.904;2023-04-01T00:13:26;98747.63;;;10.17;93.18
16255;BME280;8235;52.198;9.904;2023-04-01T00:15:53;98748.59;;;10.16;93.25
16255;BME280;8235;52.198;9.904;2023-04-01T00:18:21;98758.28;;;10.17;92.65
16255;BME280;8235;52.198;9.904;2023-04-01T00:20:49;98756.59;;;10.16;92.38
16255;BME280;8235;52.198;9.904;2023-04-01T00:23:17;98749.19;;;10.20;92.14
16255;BME280;8235;52.198;9.904;2023-04-01T00:25:44;98753.38;;;10.22;91.42
16255;BME280;8235;52.198;9.904;2023-04-01T00:28:13;98748.06;;;10.22;90.97
16255;BME280;8235;52.198;9.904;2023-04-01T00:30:40;98739.22;;;10.22;91.02
16255;BME280;8235;52.198;9.904;2023-04-01T00:33:07;98746.38;;;10.21;90.59
16255;BME280;8235;52.198;9.904;2023-04-01T00:35:35;98749.72;;;10.23;90.43
16255;BME280;8235;52.198;9.904;2023-04-01T00:38:02;98742.72;;;10.22;90.44
16255;BME280;8235;52.198;9.904;2023-04-01T00:40:31;98751.69;;;10.21;90.32
16255;BME280;8235;52.198;9.904;2023-04-01T00:42:58;98748.06;;;10.22;90.10
16255;BME280;8235;52.198;9.904;2023-04-01T00:45:29;98753.38;;;10.22;89.79
16255;BME280;8235;52.198;9.904;2023-04-01T00:47:58;98750.72;;;10.22;89.71
16255;BME280;8235;52.198;9.904;2023-04-01T00:50:28;98756.03;;;10.22;89.37
16255;BME280;8235;52.198;9.904;2023-04-01T00:52:58;98753.22;;;10.24;88.95
16255;BME280;8235;52.198;9.904;2023-04-01T00:55:27;98747.22;;;10.22;89.01
16255;BME280;8235;52.198;9.904;2023-04-01T00:57:57;98752.25;;;10.25;88.63
16255;BME280;8235;52.198;9.904;2023-04-01T01:00:25;98757.44;;;10.26;88.33
16255;BME280;8235;52.198;9.904;2023-04-01T01:02:52;98753.09;;;10.25;88.11
16255;BME280;8235;52.198;9.904;2023-04-01T01:05:23;98760.94;;;10.27;87.93
16255;BME280;8235;52.198;9.904;2023-04-01T01:07:58;98759.41;;;10.24;88.25
16255;BME280;8235;52.198;9.904;2023-04-01T01:10:32;98761.22;;;10.24;87.77
16255;BME280;8235;52.198;9.904;2023-04-01T01:13:08;98755.75;;;10.25;87.46
16255;BME280;8235;52.198;9.904;2023-04-01T01:15:41;98762.75;;;10.26;87.67
16255;BME280;8235;52.198;9.904;2023-04-01T01:18:18;98756.88;;;10.23;87.81
16255;BME280;8235;52.198;9.904;2023-04-01T01:26:56;98747.75;;;10.16;88.39
16255;BME280;8235;52.198;9.904;2023-04-01T01:29:40;98758.41;;;10.16;88.67
16255;BME280;8235;52.198;9.904;2023-04-01T01:32:16;98744.41;;;10.14;88.55
16255;BME280;8235;52.198;9.904;2023-04-01T01:34:52;98746.38;;;10.12;89.33
16255;BME280;8235;52.198;9.904;2023-04-01T01:37:25;98747.47;;;10.09;89.18
16255;BME280;8235;52.198;9.904;2023-04-01T01:39:55;98738.66;;;10.08;89.60
16255;BME280;8235;52.198;9.904;2023-04-01T01:42:24;98744.94;;;10.07;90.20
16255;BME280;8235;52.198;9.904;2023-04-01T01:44:52;98738.78;;;10.07;90.55
16255;BME280;8235;52.198;9.904;2023-04-01T01:47:22;98740.09;;;10.03;90.46
16255;BME280;8235;52.198;9.904;2023-04-01T01:49:51;98743.84;;;10.00;90.73
16255;BME280;8235;52.198;9.904;2023-04-01T01:52:18;98750.28;;;9.98;91.45
16255;BME280;8235;52.198;9.904;2023-04-01T01:54:50;98745.09;;;9.96;91.25
16255;BME280;8235;52.198;9.904;2023-04-01T01:57:19;98743.41;;;9.95;91.66
16255;BME280;8235;52.198;9.904;2023-04-01T01:59:47;98746.22;;;9.94;92.17
16255;BME280;8235;52.198;9.904;2023-04-01T02:02:15;98749.16;;;9.91;92.17
16255;BME280;8235;52.198;9.904;2023-04-01T02:04:43;98744.69;;;9.91;92.04
16255;BME280;8235;52.198;9.904;2023-04-01T02:07:15;98750.13;;;9.90;92.07
16255;BME280;8235;52.198;9.904;2023-04-01T02:09:44;98749.44;;;9.88;92.09
16255;BME280;8235;52.198;9.904;2023-04-01T02:12:14;98748.59;;;9.87;92.57
16255;BME280;8235;52.198;9.904;2023-04-01T02:14:45;98761.75;;;9.89;92.16
16255;BME280;8235;52.198;9.904;2023-04-01T02:17:15;98747.75;;;9.87;92.17
16255;BME280;8235;52.198;9.904;2023-04-01T02:19:47;98757.53;;;9.86;92.14
16255;BME280;8235;52.198;9.904;2023-04-01T02:22:17;98752.53;;;9.83;92.39
16255;BME280;8235;52.198;9.904;2023-04-01T02:24:45;98745.38;;;9.84;91.99
16255;BME280;8235;52.198;9.904;2023-04-01T02:27:13;98757.69;;;9.85;91.91
16255;BME280;8235;52.198;9.904;2023-04-01T02:29:40;98753.38;;;9.84;92.05
16255;BME280;8235;52.198;9.904;2023-04-01T02:32:08;98748.03;;;9.84;91.96
16255;BME280;8235;52.198;9.904;2023-04-01T02:34:36;98758.53;;;9.85;91.86
16255;BME280;8235;52.198;9.904;2023-04-01T02:37:03;98755.88;;;9.85;92.33
16255;BME280;8235;52.198;9.904;2023-04-01T02:39:30;98746.91;;;9.86;91.78
16255;BME280;8235;52.198;9.904;2023-04-01T02:41:56;98757.41;;;9.88;91.98
16255;BME280;8235;52.198;9.904;2023-04-01T02:44:24;98749.56;;;9.86;92.34
16255;BME280;8235;52.198;9.904;2023-04-01T02:46:51;98743.41;;;9.86;92.65
16255;BME280;8235;52.198;9.904;2023-04-01T02:49:18;98761.22;;;9.85;92.25
16255;BME280;8235;52.198;9.904;2023-04-01T02:51:49;98745.25;;;9.85;92.51
16255;BME280;8235;52.198;9.904;2023-04-01T02:54:17;98757.00;;;9.83;92.84
16255;BME280;8235;52.198;9.904;2023-04-01T02:56:46;98764.00;;;9.84;93.00
16255;BME280;8235;52.198;9.904;2023-04-01T02:59:13;98758.69;;;9.84;93.15
16255;BME280;8235;52.198;9.904;2023-04-01T03:01:42;98754.47;;;9.81;93.18
16255;BME280;8235;52.198;9.904;2023-04-01T03:04:10;98761.59;;;9.81;92.76
16255;BME280;8235;52.198;9.904;2023-04-01T03:06:38;98759.09;;;9.79;93.23
16255;BME280;8235;52.198;9.904;2023-04-01T03:09:05;98759.34;;;9.76;93.62
16255;BME280;8235;52.198;9.904;2023-04-01T03:11:33;98759.22;;;9.78;93.32
16255;BME280;8235;52.198;9.904;2023-04-01T03:14:01;98762.00;;;9.76;93.48
16255;BME280;8235;52.198;9.904;2023-04-01T03:16:29;98757.53;;;9.77;93.26
16255;BME280;8235;52.198;9.904;2023-04-01T03:18:59;98762.84;;;9.77;93.44
16255;BME280;8235;52.198;9.904;2023-04-01T03:21:27;98764.53;;;9.78;94.07
16255;BME280;8235;52.198;9.904;2023-04-01T03:23:55;98764.81;;;9.74;93.48
16255;BME280;8235;52.198;9.904;2023-04-01T03:26:25;98775.44;;;9.74;94.11
16255;BME280;8235;52.198;9.904;2023-04-01T03:28:56;98772.91;;;9.73;94.25
16255;BME280;8235;52.198;9.904;2023-04-01T03:31:23;98764.09;;;9.72;94.27
16255;BME280;8235;52.198;9.904;2023-04-01T03:33:51;98769.56;;;9.71;94.18
16255;BME280;8235;52.198;9.904;2023-04-01T03:36:20;98760.75;;;9.70;94.64
16255;BME280;8235;52.198;9.904;2023-04-01T03:38:51;98767.88;;;9.70;94.32
16255;BME280;8235;52.198;9.904;2023-04-01T03:41:21;98777.66;;;9.69;94.81
16255;BME280;8235;52.198;9.904;2023-04-01T03:43:49;98771.38;;;9.70;94.57
16255;BME280;8235;52.198;9.904;2023-04-01T03:46:18;98773.19;;;9.70;94.70
16255;BME280;8235;52.198;9.904;2023-04-01T03:48:47;98777.66;;;9.69;94.38
16255;BME280;8235;52.198;9.904;2023-04-01T03:51:15;98780.31;;;9.69;94.22
16255;BME280;8235;52.198;9.904;2023-04-01T03:53:44;98778.50;;;9.70;94.47
16255;BME280;8235;52.198;9.904;2023-04-01T03:56:14;98780.19;;;9.71;94.62
16255;BME280;8235;52.198;9.904;2023-04-01T03:58:42;98778.50;;;9.70;94.22
16255;BME280;8235;52.198;9.904;2023-04-01T04:01:18;98781.03;;;9.71;94.24
16255;BME280;8235;52.198;9.904;2023-04-01T04:03:46;98774.03;;;9.70;94.17
16255;BME280;8235;52.198;9.904;2023-04-01T04:06:14;98775.72;;;9.71;93.26
16255;BME280;8235;52.198;9.904;2023-04-01T04:08:42;98783.69;;;9.71;93.50
16255;BME280;8235;52.198;9.904;2023-04-01T04:11:11;98781.88;;;9.72;93.54
16255;BME280;8235;52.198;9.904;2023-04-01T04:13:40;98778.50;;;9.70;93.91
16255;BME280;8235;52.198;9.904;2023-04-01T04:16:08;98788.16;;;9.71;93.64
16255;BME280;8235;52.198;9.904;2023-04-01T04:18:36;98789.00;;;9.71;93.67
16255;BME280;8235;52.198;9.904;2023-04-01T04:21:03;98784.66;;;9.70;93.53
16255;BME280;8235;52.198;9.904;2023-04-01T04:23:34;98789.97;;;9.70;93.45
16255;BME280;8235;52.198;9.904;2023-04-01T04:26:04;98783.81;;;9.70;93.56
16255;BME280;8235;52.198;9.904;2023-04-01T04:28:33;98789.97;;;9.70;93.78
16255;BME280;8235;52.198;9.904;2023-04-01T04:31:01;98782.13;;;9.69;94.03
16255;BME280;8235;52.198;9.904;2023-04-01T04:33:30;98786.47;;;9.70;93.86
16255;BME280;8235;52.198;9.904;2023-04-01T04:35:58;98795.28;;;9.70;94.65
16255;BME280;8235;52.198;9.904;2023-04-01T04:38:28;98795.28;;;9.70;93.99
16255;BME280;8235;52.198;9.904;2023-04-01T04:40:56;98802.28;;;9.71;94.17
16255;BME280;8235;52.198;9.904;2023-04-01T04:43:23;98801.44;;;9.71;94.59
16255;BME280;8235;52.198;9.904;2023-04-01T04:45:52;98802.56;;;9.68;94.84
16255;BME280;8235;52.198;9.904;2023-04-01T04:48:20;98801.72;;;9.68;94.49
16255;BME280;8235;52.198;9.904;2023-04-01T04:50:50;98798.22;;;9.67;94.79
16255;BME280;8235;52.198;9.904;2023-04-01T04:53:18;98801.19;;;9.64;94.76
16255;BME280;8235;52.198;9.904;2023-04-01T04:55:46;98799.34;;;9.65;95.33
16255;BME280;8235;52.198;9.904;2023-04-01T04:58:17;98801.19;;;9.64;95.61
16255;BME280;8235;52.198;9.904;2023-04-01T05:00:45;98803.13;;;9.62;95.19
16255;BME280;8235;52.198;9.904;2023-04-01T05:03:14;98810.25;;;9.62;95.52
16255;BME280;8235;52.198;9.904;2023-04-01T05:05:50;98814.03;;;9.59;96.06
16255;BME280;8235;52.198;9.904;2023-04-01T05:08:18;98808.84;;;9.58;96.53
16255;BME280;8235;52.198;9.904;2023-04-01T05:10:46;98808.97;;;9.56;96.47
16255;BME280;8235;52.198;9.904;2023-04-01T05:13:13;98807.28;;;9.55;96.54
16255;BME280;8235;52.198;9.904;2023-04-01T05:15:41;98807.44;;;9.54;96.89
16255;BME280;8235;52.198;9.904;2023-04-01T05:18:08;98815.53;;;9.52;97.22
16255;BME280;8235;52.198;9.904;2023-04-01T05:20:37;98812.88;;;9.52;97.08
16255;BME280;8235;52.198;9.904;2023-04-01T05:23:04;98812.03;;;9.52;97.69
16255;BME280;8235;52.198;9.904;2023-04-01T05:25:32;98814.97;;;9.49;97.44
16255;BME280;8235;52.198;9.904;2023-04-01T05:27:59;98818.47;;;9.49;97.82
16255;BME280;8235;52.198;9.904;2023-04-01T05:30:27;98816.81;;;9.48;98.25
16255;BME280;8235;52.198;9.904;2023-04-01T05:32:54;98827.44;;;9.48;97.76
16255;BME280;8235;52.198;9.904;2023-04-01T05:35:23;98820.56;;;9.46;98.69
16255;BME280;8235;52.198;9.904;2023-04-01T05:37:54;98830.34;;;9.45;98.33
16255;BME280;8235;52.198;9.904;2023-04-01T05:40:21;98824.31;;;9.43;98.39
16255;BME280;8235;52.198;9.904;2023-04-01T05:42:49;98820.97;;;9.41;98.89
16255;BME280;8235;52.198;9.904;2023-04-01T05:45:16;98828.66;;;9.44;99.22
16255;BME280;8235;52.198;9.904;2023-04-01T05:47:44;98823.63;;;9.41;99.16
16255;BME280;8235;52.198;9.904;2023-04-01T05:50:12;98826.97;;;9.43;99.09
16255;BME280;8235;52.198;9.904;2023-04-01T05:52:42;98823.34;;;9.44;99.95
16255;BME280;8235;52.198;9.904;2023-04-01T05:55:11;98829.63;;;9.43;100.00
16255;BME280;8235;52.198;9.904;2023-04-01T05:57:46;98830.47;;;9.44;100.00
16255;BME280;8235;52.198;9.904;2023-04-01T06:00:15;98826.84;;;9.45;99.97
16255;BME280;8235;52.198;9.904;2023-04-01T06:02:42;98838.91;;;9.49;100.00
16255;BME280;8235;52.198;9.904;2023-04-01T06:05:16;98841.41;;;9.50;100.00
16255;BME280;8235;52.198;9.904;2023-04-01T06:07:44;98836.06;;;9.50;100.00
16255;BME280;8235;52.198;9.904;2023-04-01T06:10:17;98835.09;;;9.51;100.00
16255;BME280;8235;52.198;9.904;2023-04-01T06:12:59;98837.63;;;9.53;100.00
16255;BME280;8235;52.198;9.904;2023-04-01T06:15:36;98846.19;;;9.56;100.00
16255;BME280;8235;52.198;9.904;2023-04-01T06:18:38;98844.22;;;9.58;100.00
16255;BME280;8235;52.198;9.904;2023-04-01T06:21:23;98846.75;;;9.60;100.00
16255;BME280;8235;52.198;9.904;2023-04-01T06:24:01;98844.81;;;9.62;100.00
16255;BME280;8235;52.198;9.904;2023-04-01T06:26:38;98856.03;;;9.65;100.00
16255;BME280;8235;52.198;9.904;2023-04-01T06:29:44;98848.72;;;9.67;100.00
16255;BME280;8235;52.198;9.904;2023-04-01T06:32:26;98847.63;;;9.70;100.00
16255;BME280;8235;52.198;9.904;2023-04-01T06:41:55;98859.13;;;9.80;100.00
16255;BME280;8235;52.198;9.904;2023-04-01T06:44:33;98858.03;;;9.83;100.00
16255;BME280;8235;52.198;9.904;2023-04-01T06:47:10;98859.72;;;9.84;100.00
16255;BME280;8235;52.198;9.904;2023-04-01T06:49:47;98870.06;;;9.87;100.00
16255;BME280;8235;52.198;9.904;2023-04-01T06:52:22;98863.75;;;9.88;100.00
16255;BME280;8235;52.198;9.904;2023-04-01T06:55:00;98859.84;;;9.92;100.00
16255;BME280;8235;52.198;9.904;2023-04-01T06:57:34;98863.22;;;9.94;100.00
16255;BME280;8235;52.198;9.904;2023-04-01T07:00:13;98863.22;;;9.94;100.00
16255;BME280;8235;52.198;9.904;2023-04-01T07:02:45;98863.09;;;9.95;100.00
16255;BME280;8235;52.198;9.904;2023-04-01T07:05:19;98871.50;;;10.00;100.00
16255;BME280;8235;52.198;9.904;2023-04-01T07:07:52;98873.06;;;10.03;100.00
16255;BME280;8235;52.198;9.904;2023-04-01T07:10:31;98869.38;;;10.04;100.00
16255;BME280;8235;52.198;9.904;2023-04-01T07:13:05;98878.78;;;10.08;100.00
16255;BME280;8235;52.198;9.904;2023-04-01T07:15:37;98872.34;;;10.10;100.00
16255;BME280;8235;52.198;9.904;2023-04-01T07:18:12;98881.88;;;10.13;100.00
16255;BME280;8235;52.198;9.904;2023-04-01T07:20:41;98886.09;;;10.16;100.00
16255;BME280;8235;52.198;9.904;2023-04-01T07:23:15;98888.50;;;10.19;100.00
16255;BME280;8235;52.198;9.904;2023-04-01T07:25:45;98879.38;;;10.21;100.00
16255;BME280;8235;52.198;9.904;2023-04-01T07:28:16;98887.94;;;10.25;100.00
16255;BME280;8235;52.198;9.904;2023-04-01T07:30:52;98891.19;;;10.28;100.00
16255;BME280;8235;52.198;9.904;2023-04-01T07:33:30;98889.94;;;10.32;100.00
16255;BME280;8235;52.198;9.904;2023-04-01T07:36:05;98895.69;;;10.37;100.00
16255;BME280;8235;52.198;9.904;2023-04-01T07:38:42;98899.84;;;10.40;100.00
16255;BME280;8235;52.198;9.904;2023-04-01T07:41:22;98898.47;;;10.46;100.00
16255;BME280;8235;52.198;9.904;2023-04-01T07:44:05;98901.72;;;10.49;100.00
16255;BME280;8235;52.198;9.904;2023-04-01T07:49:38;98903.38;;;10.50;100.00
16255;BME280;8235;52.198;9.904;2023-04-01T07:52:12;98913.63;;;10.55;100.00
16255;BME280;8235;52.198;9.904;2023-04-01T07:54:45;98919.66;;;10.57;100.00
16255;BME280;8235;52.198;9.904;2023-04-01T07:57:19;98911.66;;;10.57;100.00
16255;BME280;8235;52.198;9.904;2023-04-01T07:59:58;98920.34;;;10.59;100.00
16255;BME280;8235;52.198;9.904;2023-04-01T08:02:38;98922.00;;;10.60;100.00
16255;BME280;8235;52.198;9.904;2023-04-01T08:05:16;98923.56;;;10.62;100.00
16255;BME280;8235;52.198;9.904;2023-04-01T08:07:51;98919.78;;;10.65;100.00
16255;BME280;8235;52.198;9.904;2023-04-01T08:10:24;98915.72;;;10.70;100.00
16255;BME280;8235;52.198;9.904;2023-04-01T08:13:02;98922.47;;;10.74;99.62
16255;BME280;8235;52.198;9.904;2023-04-01T08:15:37;98929.03;;;10.80;99.68
16255;BME280;8235;52.198;9.904;2023-04-01T08:18:14;98927.78;;;10.84;99.11
16255;BME280;8235;52.198;9.904;2023-04-01T08:20:47;98933.09;;;10.84;98.02
16255;BME280;8235;52.198;9.904;2023-04-01T08:23:18;98934.50;;;10.88;98.24
16255;BME280;8235;52.198;9.904;2023-04-01T08:25:51;98925.25;;;10.92;97.66
16255;BME280;8235;52.198;9.904;2023-04-01T08:28:24;98942.47;;;10.98;97.73
16255;BME280;8235;52.198;9.904;2023-04-01T08:30:57;98936.75;;;11.02;97.58
16255;BME280;8235;52.198;9.904;2023-04-01T08:33:30;98939.97;;;11.06;97.37
16255;BME280;8235;52.198;9.904;2023-04-01T08:36:03;98938.00;;;11.08;96.88
16255;BME280;8235;52.198;9.904;2023-04-01T08:38:36;98941.91;;;11.13;96.87
16255;BME280;8235;52.198;9.904;2023-04-01T08:41:21;98942.31;;;11.19;96.35
16255;BME280;8235;52.198;9.904;2023-04-01T08:44:15;98943.72;;;11.23;95.86
16255;BME280;8235;52.198;9.904;2023-04-01T08:47:00;98949.63;;;11.26;95.84
16255;BME280;8235;52.198;9.904;2023-04-01T08:49:54;98944.53;;;11.33;95.61
16255;BME280;8235;52.198;9.904;2023-04-01T08:52:32;98955.63;;;11.38;94.92
16255;BME280;8235;52.198;9.904;2023-04-01T08:55:19;98952.69;;;11.41;94.47
16255;BME280;8235;52.198;9.904;2023-04-01T08:58:00;98950.56;;;11.44;94.25
16255;BME280;8235;52.198;9.904;2023-04-01T09:00:31;98958.41;;;11.46;93.71
16255;BME280;8235;52.198;9.904;2023-04-01T09:03:32;98963.16;;;11.52;93.29
16255;BME280;8235;52.198;9.904;2023-04-01T09:06:18;98958.25;;;11.57;92.45
16255;BME280;8235;52.198;9.904;2023-04-01T09:11:58;98954.41;;;11.69;91.55
16255;BME280;8235;52.198;9.904;2023-04-01T09:14:52;98960.88;;;11.76;90.85
16255;BME280;8235;52.198;9.904;2023-04-01T09:17:36;98962.81;;;11.84;90.61
16255;BME280;8235;52.198;9.904;2023-04-01T09:20:29;98962.38;;;11.89;89.03
16255;BME280;8235;52.198;9.904;2023-04-01T09:23:18;98965.03;;;11.89;88.05
16255;BME280;8235;52.198;9.904;2023-04-01T09:29:04;98971.47;;;11.96;88.07
16255;BME280;8235;52.198;9.904;2023-04-01T09:32:07;98978.03;;;12.01;87.58
16255;BME280;8235;52.198;9.904;2023-04-01T09:34:52;98981.53;;;12.02;87.25
16255;BME280;8235;52.198;9.904;2023-04-01T09:37:32;98975.09;;;12.04;87.50
16255;BME280;8235;52.198;9.904;2023-04-01T09:40:16;98987.00;;;12.10;87.26
16255;BME280;8235;52.198;9.904;2023-04-01T09:42:48;98996.56;;;12.12;87.19
16255;BME280;8235;52.198;9.904;2023-04-01T09:45:32;98987.41;;;12.15;86.79
16255;BME280;8235;52.198;9.904;2023-04-01T09:48:21;98997.81;;;12.18;86.11
16255;BME280;8235;52.198;9.904;2023-04-01T09:51:01;98996.13;;;12.17;86.14
16255;BME280;8235;52.198;9.904;2023-04-01T09:53:48;99001.28;;;12.18;86.27
16255;BME280;8235;52.198;9.904;2023-04-01T09:56:33;99003.81;;;12.20;85.84
16255;BME280;8235;52.198;9.904;2023-04-01T09:59:36;99004.50;;;12.22;86.10
16255;BME280;8235;52.198;9.904;2023-04-01T10:02:48;99006.72;;;12.27;86.11
16255;BME280;8235;52.198;9.904;2023-04-01T10:11:45;99021.56;;;12.39;86.46
16255;BME280;8235;52.198;9.904;2023-04-01T10:14:38;99022.94;;;12.43;86.36
16255;BME280;8235;52.198;9.904;2023-04-01T10:17:34;99014.50;;;12.47;86.57
16255;BME280;8235;52.198;9.904;2023-04-01T10:20:33;99023.75;;;12.53;86.57
16255;BME280;8235;52.198;9.904;2023-04-01T10:23:25;99027.94;;;12.56;86.64
16255;BME280;8235;52.198;9.904;2023-04-01T10:26:24;99032.44;;;12.55;85.96
16255;BME280;8235;52.198;9.904;2023-04-01T10:29:19;99026.44;;;12.53;85.73
16255;BME280;8235;52.198;9.904;2023-04-01T10:32:04;99024.41;;;12.55;86.63
16255;BME280;8235;52.198;9.904;2023-04-01T10:34:56;99027.34;;;12.62;87.36
16255;BME280;8235;52.198;9.904;2023-04-01T10:37:59;99034.06;;;12.66;86.98
16255;BME280;8235;52.198;9.904;2023-04-01T10:40:54;99037.75;;;12.65;86.86
16255;BME280;8235;52.198;9.904;2023-04-01T10:43:46;99032.41;;;12.65;86.90
16255;BME280;8235;52.198;9.904;2023-04-01T10:49:47;99035.63;;;12.68;87.72
16255;BME280;8235;52.198;9.904;2023-04-01T10:53:01;99030.13;;;12.70;87.37
16255;BME280;8235;52.198;9.904;2023-04-01T10:55:42;99040.13;;;12.68;87.27
16255;BME280;8235;52.198;9.904;2023-04-01T10:58:58;99041.94;;;12.67;87.56
16255;BME280;8235;52.198;9.904;2023-04-01T11:02:14;99035.47;;;12.70;87.96
16255;BME280;8235;52.198;9.904;2023-04-01T11:05:20;99044.19;;;12.72;88.15
16255;BME280;8235;52.198;9.904;2023-04-01T11:08:21;99034.84;;;12.76;88.33
16255;BME280;8235;52.198;9.904;2023-04-01T11:11:42;99042.03;;;12.75;87.76
16255;BME280;8235;52.198;9.904;2023-04-01T11:26:51;99049.06;;;12.94;88.23
16255;BME280;8235;52.198;9.904;2023-04-01T11:29:53;99057.78;;;12.96;88.26
16255;BME280;8235;52.198;9.904;2023-04-01T11:32:39;99065.78;;;12.96;87.63
16255;BME280;8235;52.198;9.904;2023-04-01T11:38:34;99066.78;;;12.95;86.86
16255;BME280;8235;52.198;9.904;2023-04-01T11:41:20;99064.13;;;12.95;86.87
16255;BME280;8235;52.198;9.904;2023-04-01T11:44:03;99069.59;;;12.94;86.24
16255;BME280;8235;52.198;9.904;2023-04-01T11:46:42;99068.25;;;12.90;85.42
16255;BME280;8235;52.198;9.904;2023-04-01T11:49:28;99073.88;;;12.86;85.15
16255;BME280;8235;52.198;9.904;2023-04-01T11:52:05;99073.34;;;12.83;84.46
16255;BME280;8235;52.198;9.904;2023-04-01T11:54:54;99078.69;;;12.83;84.94
16255;BME280;8235;52.198;9.904;2023-04-01T11:57:43;99087.41;;;12.85;84.51
16255;BME280;8235;52.198;9.904;2023-04-01T12:00:34;99083.44;;;12.89;84.59
16255;BME280;8235;52.198;9.904;2023-04-01T12:03:21;99091.13;;;12.92;85.11
16255;BME280;8235;52.198;9.904;2023-04-01T12:05:54;99086.47;;;12.94;84.79
16255;BME280;8235;52.198;9.904;2023-04-01T12:08:33;99081.69;;;12.98;85.19
16255;BME280;8235;52.198;9.904;2023-04-01T12:11:08;99092.06;;;13.01;85.16
16255;BME280;8235;52.198;9.904;2023-04-01T12:13:47;99091.22;;;13.00;84.32
16255;BME280;8235;52.198;9.904;2023-04-01T12:16:29;99098.25;;;13.01;83.80
16255;BME280;8235;52.198;9.904;2023-04-01T12:19:10;99105.44;;;13.01;84.00
16255;BME280;8235;52.198;9.904;2023-04-01T12:21:45;99109.78;;;13.02;83.52
16255;BME280;8235;52.198;9.904;2023-04-01T12:24:41;99104.31;;;13.03;83.74
16255;BME280;8235;52.198;9.904;2023-04-01T12:27:29;99102.19;;;13.07;84.63
16255;BME280;8235;52.198;9.904;2023-04-01T12:30:32;99107.03;;;13.11;84.96
16255;BME280;8235;52.198;9.904;2023-04-01T12:33:18;99108.59;;;13.14;85.17
16255;BME280;8235;52.198;9.904;2023-04-01T12:35:58;99109.84;;;13.19;85.23
16255;BME280;8235;52.198;9.904;2023-04-01T12:38:31;99115.75;;;13.23;85.31
16255;BME280;8235;52.198;9.904;2023-04-01T12:41:09;99114.75;;;13.24;84.46
16255;BME280;8235;52.198;9.904;2023-04-01T12:44:13;99111.25;;;13.24;84.38
16255;BME280;8235;52.198;9.904;2023-04-01T12:47:00;99117.88;;;13.19;83.34
16255;BME280;8235;52.198;9.904;2023-04-01T12:52:58;99124.22;;;13.18;83.06
16255;BME280;8235;52.198;9.904;2023-04-01T12:55:39;99130.41;;;13.19;82.86
16255;BME280;8235;52.198;9.904;2023-04-01T12:58:42;99128.56;;;13.19;82.77
16255;BME280;8235;52.198;9.904;2023-04-01T13:01:29;99132.78;;;13.22;82.41
16255;BME280;8235;52.198;9.904;2023-04-01T13:07:21;99136.91;;;13.34;83.48
16255;BME280;8235;52.198;9.904;2023-04-01T13:09:57;99138.44;;;13.37;83.14
16255;BME280;8235;52.198;9.904;2023-04-01T13:12:37;99142.50;;;13.41;83.17
16255;BME280;8235;52.198;9.904;2023-04-01T13:15:24;99140.34;;;13.44;83.11
16255;BME280;8235;52.198;9.904;2023-04-01T13:17:53;99146.53;;;13.45;82.17
16255;BME280;8235;52.198;9.904;2023-04-01T13:20:33;99151.22;;;13.43;81.56
16255;BME280;8235;52.198;9.904;2023-04-01T13:23:11;99154.53;;;13.45;80.59
16255;BME280;8235;52.198;9.904;2023-04-01T13:25:48;99157.91;;;13.47;80.51
16255;BME280;8235;52.198;9.904;2023-04-01T13:28:20;99156.09;;;13.47;80.54
16255;BME280;8235;52.198;9.904;2023-04-01T13:30:54;99158.59;;;13.49;80.47
16255;BME280;8235;52.198;9.904;2023-04-01T13:33:28;99160.28;;;13.50;80.58
16255;BME280;8235;52.198;9.904;2023-04-01T13:36:06;99173.66;;;13.50;80.41
16255;BME280;8235;52.198;9.904;2023-04-01T13:41:39;99175.94;;;13.45;81.23
16255;BME280;8235;52.198;9.904;2023-04-01T13:44:11;99171.75;;;13.42;82.07
16255;BME280;8235;52.198;9.904;2023-04-01T13:47:02;99178.25;;;13.40;82.30
16255;BME280;8235;52.198;9.904;2023-04-01T13:49:39;99177.00;;;13.34;82.79
16255;BME280;8235;52.198;9.904;2023-04-01T13:52:33;99178.59;;;13.27;82.79
16255;BME280;8235;52.198;9.904;2023-04-01T13:55:31;99190.19;;;13.18;83.34
16255;BME280;8235;52.198;9.904;2023-04-01T13:58:20;99193.06;;;13.07;83.20
16255;BME280;8235;52.198;9.904;2023-04-01T14:00:56;99196.59;;;12.98;83.18
16255;BME280;8235;52.198;9.904;2023-04-01T14:03:30;99194.66;;;12.90;83.44
16255;BME280;8235;52.198;9.904;2023-04-01T14:06:06;99193.56;;;12.83;83.53
16255;BME280;8235;52.198;9.904;2023-04-01T14:11:39;99206.00;;;12.65;83.80
16255;BME280;8235;52.198;9.904;2023-04-01T14:14:18;99217.97;;;12.61;84.31
16255;BME280;8235;52.198;9.904;2023-04-01T14:17:01;99212.75;;;12.59;84.85
16255;BME280;8235;52.198;9.904;2023-04-01T14:19:46;99220.53;;;12.52;84.40
16255;BME280;8235;52.198;9.904;2023-04-01T14:22:23;99228.13;;;12.47;84.70
16255;BME280;8235;52.198;9.904;2023-04-01T14:25:16;99238.09;;;12.45;84.80
16255;BME280;8235;52.198;9.904;2023-04-01T14:27:55;99241.03;;;12.42;85.11
16255;BME280;8235;52.198;9.904;2023-04-01T14:30:38;99240.47;;;12.39;85.01
16255;BME280;8235;52.198;9.904;2023-04-01T14:33:19;99246.13;;;12.36;85.18
16255;BME280;8235;52.198;9.904;2023-04-01T14:35:54;99246.56;;;12.31;85.29
16255;BME280;8235;52.198;9.904;2023-04-01T14:38:46;99247.69;;;12.29;85.60
16255;BME280;8235;52.198;9.904;2023-04-01T14:41:20;99246.00;;;12.28;85.91
16255;BME280;8235;52.198;9.904;2023-04-01T14:47:06;99258.22;;;12.30;86.70
16255;BME280;8235;52.198;9.904;2023-04-01T14:49:36;99258.34;;;12.29;87.35
16255;BME280;8235;52.198;9.904;2023-04-01T14:52:09;99262.72;;;12.30;87.78
16255;BME280;8235;52.198;9.904;2023-04-01T14:54:38;99278.88;;;12.28;88.62
16255;BME280;8235;52.198;9.904;2023-04-01T14:57:11;99281.94;;;12.24;88.41
16255;BME280;8235;52.198;9.904;2023-04-01T14:59:40;99300.66;;;12.14;88.61
16255;BME280;8235;52.198;9.904;2023-04-01T15:02:26;99294.72;;;12.01;88.78
16255;BME280;8235;52.198;9.904;2023-04-01T15:04:58;99303.13;;;11.87;88.55